BADAN METEOROLOGI KLIMATOLOGI
DAN GEOFISIKA
Stasiun Meterologi Klas I
Frans Kaisiepo Biak
MET/SPECIAL REPORT


MET REPORT WABB 041900Z WIND 300/7KT VRB BTN 110/ AND 300/ VIS 9KM FBL RA CLD BKN 1800FT OVC 10000FT T26 DP25 QNH 1012HPA QFE 1010HPA=

MET REPORT WABB 041930Z WIND 300/8KT VRB BTN 120/ AND 300/ VIS 9KM FBL RA CLD BKN 1800FT OVC 10000FT T25 DP24 QNH 1012HPA QFE 1010HPA=

MET REPORT WABB 042000Z WIND 310/3KT VRB BTN 120/ AND 310/ VIS 9KM FBL RA CLD BKN 1800FT OVC 10000FT T25 DP23 QNH 1012HPA QFE 1010HPA=

MET REPORT WABB 042030Z WIND 330/4KT VRB BTN 150/ AND 330/ VIS 10KM CLD SCT 1800FT SCT 10000FT T24 DP23 QNH 1012HPA QFE 1011HPA TREND NOSIG=

MET REPORT WABB 042100Z WIND 200/3KT VRB BTN 050/ AND 200/ VIS 9KM FBL RA CLD BKN 1800FT OVC 10000FT T26 DP24 QNH 1012HPA QFE 1011HPA=

METAR/SPECI


METAR WABB 042100Z 20003KT 050V200 9000 -RA BKN018 OVC100 26/24 Q1012=

METAR WABB 010800Z 27004KT 080V270 9999 FEW018 30/26 Q1007 NOSIG=

METAR WABB 011100Z VRB02KT 9999 FEW018 27/25 Q1009 NOSIG=

METAR WABB 040000Z 03005KT 030V250 9000 SCT018 BKN100 26/25 Q1014 NOSIG=

SPECI WABB 010906Z 28003KT 100V280 9999 FEW018 29/24 Q1008 NOSIG=

TAFOR


TAF WABB 041700Z 0418/0524 00000KT 9999 SCT018
BECMG 0422/0424 05006KT=

TAF WABO 041700Z 0418/0518 00000KT 7000 BKN013
BECMG 0422/0424 11005KT SCT013=

TAF WAYE 041700Z 0418/0518 00000KT 5000 SCT008
BECMG 0422/0424 15005KT 9999=

TAF WABI 041700Z 0418/0518 00000KT 5000 SCT016
BECMG 0422/0424 13005KT 9999=

TAF WAYY 041700Z 0418/0518 00000KT 7000 BKN013
TEMPO 0418/0422 RA
BECMG 0422/0424 18007KT=


Stasiun Meteorologi Klas I Frans Kaisiepo Biak
Jl.Moh Yamin
Telp. (0981)25373-22824
PO.Box 132 - Biak 98101
Email : stamet.biak@bmkg.go.id

Layanan 1 x 24 jam
Telp. (0981)21742 (Forecaster Onduty)
WhatsApp (+628114822994)
Email : forecaster.biak@gmail.com

Design by : Eko | Herald
Stasiun Meteorologi Klas I Frans Kaisiepo Biak